createdAt,value
2019-01-12T00:02:23.048Z,7.65
2019-01-12T00:04:52.254Z,7.45
2019-01-12T00:07:21.448Z,8.28
2019-01-12T00:09:50.531Z,7.80
2019-01-12T00:12:19.697Z,7.28
2019-01-12T00:14:48.801Z,6.67
2019-01-12T00:17:17.907Z,7.25
2019-01-12T00:19:47.068Z,7.47
2019-01-12T00:22:16.180Z,9.35
2019-01-12T00:24:45.290Z,7.58
2019-01-12T00:27:14.500Z,6.37
2019-01-12T00:29:43.656Z,7.37
2019-01-12T00:32:12.828Z,6.97
2019-01-12T00:34:41.972Z,8.43
2019-01-12T00:37:11.077Z,7.15
2019-01-12T00:39:40.247Z,7.28
2019-01-12T00:42:09.437Z,8.40
2019-01-12T00:44:38.559Z,7.22
2019-01-12T00:47:07.751Z,6.10
2019-01-12T00:49:36.935Z,8.08
2019-01-12T00:52:06.117Z,7.05
2019-01-12T00:54:38.668Z,6.67
2019-01-12T00:57:06.023Z,6.30
2019-01-12T00:59:35.239Z,8.18
2019-01-12T01:02:04.497Z,7.03
2019-01-12T01:04:33.751Z,6.35
2019-01-12T01:07:03.004Z,7.47
2019-01-12T01:09:32.155Z,7.00
2019-01-12T01:12:01.345Z,6.78
2019-01-12T01:14:30.609Z,7.55
2019-01-12T01:16:59.768Z,7.40
2019-01-12T01:19:28.848Z,6.45
2019-01-12T01:21:58.035Z,5.75
2019-01-12T01:24:27.190Z,6.47
2019-01-12T01:26:56.318Z,6.78
2019-01-12T01:29:25.476Z,6.53
2019-01-12T01:31:54.612Z,6.80
2019-01-12T01:34:23.731Z,6.70
2019-01-12T01:36:52.819Z,6.97
2019-01-12T01:39:21.962Z,7.72
2019-01-12T01:41:51.036Z,8.25
2019-01-12T01:44:20.214Z,6.33
2019-01-12T01:46:49.362Z,4.92
2019-01-12T01:49:18.603Z,6.20
2019-01-12T01:51:47.699Z,7.67
2019-01-12T01:54:16.783Z,5.35
2019-01-12T01:56:45.893Z,6.37
2019-01-12T01:59:15.040Z,6.67
2019-01-12T02:01:44.163Z,6.50
2019-01-12T02:04:13.348Z,7.17
2019-01-12T02:06:42.783Z,6.95
2019-01-12T02:09:11.886Z,6.30
2019-01-12T02:11:41.112Z,7.05
2019-01-12T02:14:10.292Z,5.85
2019-01-12T02:16:39.512Z,6.40
2019-01-12T02:19:08.630Z,6.22
2019-01-12T02:21:37.825Z,6.78
2019-01-12T02:24:07.192Z,6.87
2019-01-12T02:26:36.311Z,6.53
2019-01-12T02:29:05.694Z,6.47
2019-01-12T02:31:34.783Z,6.55
2019-01-12T02:34:03.987Z,6.22
2019-01-12T02:36:33.304Z,6.95
2019-01-12T02:39:02.549Z,7.30
2019-01-12T02:41:31.677Z,7.10
2019-01-12T02:44:00.845Z,6.22
2019-01-12T02:46:30.021Z,6.97
2019-01-12T02:48:59.117Z,7.00
2019-01-12T02:51:28.214Z,5.85
2019-01-12T02:53:57.377Z,6.05
2019-01-12T02:56:26.589Z,5.67
2019-01-12T02:58:55.733Z,6.33
2019-01-12T03:01:24.823Z,5.33
2019-01-12T03:03:53.925Z,5.87
2019-01-12T03:06:23.042Z,6.50
2019-01-12T03:08:52.227Z,6.28
2019-01-12T03:11:21.324Z,6.62
2019-01-12T03:13:50.525Z,7.20
2019-01-12T03:16:19.610Z,7.03
2019-01-12T03:18:48.779Z,5.20
2019-01-12T03:21:17.945Z,6.65
2019-01-12T03:23:47.132Z,6.35
2019-01-12T03:26:16.391Z,6.50
2019-01-12T03:28:45.492Z,7.15
2019-01-12T03:31:14.645Z,5.42
2019-01-12T03:33:43.806Z,6.28
2019-01-12T03:36:12.962Z,5.83
2019-01-12T03:38:42.124Z,6.72
2019-01-12T03:41:11.286Z,7.10
2019-01-12T03:43:40.490Z,8.13
2019-01-12T03:46:09.823Z,6.92
2019-01-12T03:48:39.041Z,6.20
2019-01-12T03:51:08.293Z,7.15
2019-01-12T03:53:37.571Z,5.55
2019-01-12T03:56:06.797Z,6.75
2019-01-12T03:58:36.164Z,6.20
2019-01-12T04:01:05.513Z,6.42
2019-01-12T04:03:34.701Z,5.92
2019-01-12T04:06:04.056Z,6.10
2019-01-12T04:08:33.374Z,6.85
2019-01-12T04:11:02.627Z,7.22
2019-01-12T04:13:31.893Z,6.00
2019-01-12T04:16:01.056Z,5.67
2019-01-12T04:18:30.153Z,7.80
2019-01-12T04:20:59.318Z,6.85
2019-01-12T04:23:28.510Z,7.72
2019-01-12T04:25:57.798Z,6.00
2019-01-12T04:28:26.993Z,6.95
2019-01-12T04:30:56.155Z,6.20
2019-01-12T04:33:25.308Z,6.83
2019-01-12T04:35:54.457Z,5.90
2019-01-12T04:38:23.563Z,6.00
2019-01-12T04:40:52.671Z,7.08
2019-01-12T04:43:21.762Z,6.70
2019-01-12T04:45:50.858Z,6.12
2019-01-12T04:48:20.030Z,6.70
2019-01-12T04:50:49.128Z,6.12
2019-01-12T04:53:18.228Z,5.97
2019-01-12T04:55:47.389Z,5.67
2019-01-12T04:58:16.546Z,5.95
2019-01-12T05:00:48.558Z,7.53
2019-01-12T05:03:17.777Z,5.72
2019-01-12T05:05:46.999Z,7.95
2019-01-12T05:08:16.188Z,6.00
2019-01-12T05:10:45.361Z,6.15
2019-01-12T05:13:14.983Z,6.72
2019-01-12T05:15:44.963Z,5.97
2019-01-12T05:18:14.186Z,6.17
2019-01-12T05:20:43.383Z,6.50
2019-01-12T05:23:12.569Z,6.55
2019-01-12T05:25:48.707Z,7.03
2019-01-12T05:28:12.506Z,5.00
2019-01-12T05:30:41.702Z,5.97
2019-01-12T05:33:10.859Z,5.45
2019-01-12T05:35:39.972Z,5.58
2019-01-12T05:38:13.697Z,6.90
2019-01-12T05:41:04.929Z,7.05
2019-01-12T05:44:03.611Z,5.30
2019-01-12T05:46:33.171Z,7.28
2019-01-12T05:49:05.600Z,5.70
2019-01-12T05:51:35.447Z,6.72
2019-01-12T05:54:06.845Z,5.58
2019-01-12T05:56:36.416Z,7.25
2019-01-12T05:59:09.126Z,6.25
2019-01-12T06:01:38.802Z,4.83
2019-01-12T06:04:12.381Z,5.97
2019-01-12T06:06:44.213Z,5.20
2019-01-12T06:09:16.910Z,5.67
2019-01-12T06:11:56.384Z,5.78
2019-01-12T06:14:29.624Z,6.03
2019-01-12T06:16:59.321Z,5.15
2019-01-12T06:19:29.009Z,6.20
2019-01-12T06:21:58.552Z,5.20
2019-01-12T06:24:28.345Z,5.85
2019-01-12T06:26:58.159Z,6.12
2019-01-12T06:29:27.815Z,5.40
2019-01-12T06:31:57.208Z,6.20
2019-01-12T06:34:26.555Z,6.08
2019-01-12T06:36:56.032Z,4.37
2019-01-12T06:39:25.319Z,5.35
2019-01-12T06:41:54.675Z,5.55
2019-01-12T06:44:24.171Z,5.55
2019-01-12T06:46:53.615Z,5.90
2019-01-12T06:49:24.751Z,6.55
2019-01-12T06:51:54.150Z,7.00
2019-01-12T06:54:23.620Z,6.22
2019-01-12T06:56:53.023Z,6.33
2019-01-12T06:59:22.800Z,4.87
2019-01-12T07:01:52.423Z,5.35
2019-01-12T07:04:23.735Z,4.95
2019-01-12T07:06:53.823Z,6.03
2019-01-12T07:09:23.284Z,4.80
2019-01-12T07:11:52.793Z,5.90
2019-01-12T07:14:22.334Z,4.87
2019-01-12T07:16:53.343Z,4.55
2019-01-12T07:19:23.900Z,6.28
2019-01-12T07:21:55.394Z,5.40
2019-01-12T07:24:25.177Z,5.17
2019-01-12T07:26:56.079Z,4.83
2019-01-12T07:29:25.355Z,4.37
2019-01-12T07:31:54.773Z,5.20
2019-01-12T07:34:24.111Z,5.30
2019-01-12T07:36:53.638Z,4.92
2019-01-12T07:39:23.074Z,6.12
2019-01-12T07:41:52.438Z,7.30
2019-01-12T07:44:28.705Z,4.60
2019-01-12T07:46:58.761Z,4.95
2019-01-12T07:49:30.874Z,4.95
2019-01-12T07:52:04.820Z,4.62
2019-01-12T07:54:37.588Z,4.85
2019-01-12T07:57:07.360Z,4.60
2019-01-12T07:59:37.450Z,3.85
2019-01-12T08:02:09.545Z,4.15
2019-01-12T08:04:39.511Z,4.67
2019-01-12T08:07:28.748Z,4.78
2019-01-12T08:13:14.242Z,4.50
2019-01-12T08:16:22.138Z,4.20
2019-01-12T08:23:25.345Z,4.22
2019-01-12T08:25:54.157Z,5.30
2019-01-12T08:28:32.656Z,3.85
2019-01-12T08:31:01.839Z,5.65
2019-01-12T08:33:31.031Z,3.83
2019-01-12T08:39:28.192Z,5.33
2019-01-12T08:41:57.384Z,4.55
2019-01-12T08:44:27.058Z,3.83
2019-01-12T08:47:07.912Z,5.78
2019-01-12T08:49:50.495Z,3.98
2019-01-12T08:52:26.262Z,3.50
2019-01-12T08:55:01.774Z,3.92
2019-01-12T08:57:43.750Z,3.65
2019-01-12T09:00:19.715Z,5.15
2019-01-12T09:02:49.059Z,3.22
2019-01-12T09:05:18.350Z,3.30
2019-01-12T09:07:47.614Z,4.33
2019-01-12T09:10:19.671Z,4.17
2019-01-12T09:12:49.271Z,3.83
2019-01-12T09:15:18.583Z,4.87
2019-01-12T09:17:47.749Z,3.65
2019-01-12T09:20:58.467Z,3.92
2019-01-12T09:28:19.180Z,2.65
2019-01-12T09:31:23.194Z,4.25
2019-01-12T09:41:05.706Z,2.95
2019-01-12T09:44:34.122Z,3.17
2019-01-12T09:47:41.994Z,2.80
2019-01-12T09:50:13.952Z,2.70
2019-01-12T09:52:43.268Z,2.40
2019-01-12T09:55:12.672Z,2.92
2019-01-12T09:57:41.874Z,2.33
2019-01-12T10:00:15.028Z,3.02
2019-01-12T10:02:48.548Z,3.15
2019-01-12T10:05:19.437Z,2.92
2019-01-12T10:07:54.487Z,2.17
2019-01-12T10:10:28.731Z,2.35
2019-01-12T10:13:43.518Z,2.05
2019-01-12T10:16:17.475Z,2.45
2019-01-12T10:19:05.129Z,2.47
2019-01-12T10:21:34.285Z,2.12
2019-01-12T10:24:03.836Z,2.70
2019-01-12T10:26:35.345Z,2.90
2019-01-12T10:29:47.689Z,2.92
2019-01-12T10:42:57.570Z,2.02
2019-01-12T10:45:51.186Z,2.98
2019-01-12T10:48:28.587Z,2.08
2019-01-12T10:51:05.028Z,2.27
2019-01-12T10:54:22.260Z,2.10
2019-01-12T10:59:36.595Z,2.10
2019-01-12T11:02:06.795Z,2.00
2019-01-12T11:04:36.052Z,2.00
2019-01-12T11:07:05.647Z,2.10
2019-01-12T11:09:37.065Z,1.85
2019-01-12T11:12:06.400Z,2.52
2019-01-12T11:14:36.140Z,2.12
2019-01-12T11:17:05.380Z,2.02
2019-01-12T11:19:34.600Z,1.98
2019-01-12T11:22:03.873Z,2.10
2019-01-12T11:24:33.130Z,2.62
2019-01-12T11:27:02.406Z,2.10
2019-01-12T11:29:31.604Z,2.17
2019-01-12T11:32:00.807Z,2.33
2019-01-12T11:34:49.171Z,2.00
2019-01-12T11:37:21.355Z,2.15
2019-01-12T11:43:58.191Z,2.00
2019-01-12T11:52:24.140Z,1.98
2019-01-12T11:54:53.564Z,2.17
2019-01-12T11:57:22.840Z,2.10
2019-01-12T11:59:51.983Z,2.20
2019-01-12T12:02:21.097Z,2.27
2019-01-12T12:04:50.269Z,2.25
2019-01-12T12:07:19.422Z,2.25
2019-01-12T12:09:53.076Z,2.00
2019-01-12T12:12:22.240Z,2.42
2019-01-12T12:14:51.353Z,1.90
2019-01-12T12:17:20.524Z,2.40
2019-01-12T12:19:50.974Z,2.20
2019-01-12T12:22:20.263Z,2.75
2019-01-12T12:24:49.421Z,1.90
2019-01-12T12:27:18.803Z,2.15
2019-01-12T12:29:48.142Z,2.55
2019-01-12T12:32:17.325Z,1.95
2019-01-12T12:34:46.434Z,2.77
2019-01-12T12:37:15.617Z,2.42
2019-01-12T12:39:44.797Z,1.90
2019-01-12T12:42:13.961Z,2.20
2019-01-12T12:44:43.270Z,2.30
2019-01-12T12:47:12.351Z,1.75
2019-01-12T12:49:41.494Z,1.87
2019-01-12T12:52:10.584Z,2.10
2019-01-12T12:54:40.464Z,3.08
2019-01-12T12:57:09.690Z,2.05
2019-01-12T12:59:42.061Z,2.20
2019-01-12T13:02:11.287Z,1.90
2019-01-12T13:04:40.440Z,2.40
2019-01-12T13:07:09.604Z,2.02
2019-01-12T13:09:39.538Z,2.62
2019-01-12T13:12:10.930Z,2.00
2019-01-12T13:14:43.377Z,2.15
2019-01-12T13:17:12.855Z,2.10
2019-01-12T13:19:42.041Z,2.17
2019-01-12T13:22:11.254Z,2.47
2019-01-12T13:24:40.445Z,2.10
2019-01-12T13:27:09.746Z,2.20
2019-01-12T13:29:38.995Z,2.42
2019-01-12T13:32:08.856Z,2.52
2019-01-12T13:34:37.952Z,2.35
2019-01-12T13:37:07.492Z,2.70
2019-01-12T13:39:36.624Z,2.95
2019-01-12T13:42:05.770Z,2.25
2019-01-12T13:44:34.964Z,2.45
2019-01-12T13:47:04.263Z,2.10
2019-01-12T13:49:33.447Z,2.55
2019-01-12T13:52:02.660Z,2.72
2019-01-12T13:54:32.449Z,2.42
2019-01-12T13:57:01.692Z,2.67
2019-01-12T13:59:30.880Z,2.67
2019-01-12T14:02:00.053Z,3.15
2019-01-12T14:04:29.153Z,2.58
2019-01-12T14:06:58.329Z,2.70
2019-01-12T14:09:27.493Z,2.90
2019-01-12T14:12:02.109Z,2.90
2019-01-12T14:14:31.292Z,3.60
2019-01-12T14:17:00.509Z,3.62
2019-01-12T14:19:29.668Z,2.98
2019-01-12T14:21:58.755Z,2.40
2019-01-12T14:24:27.867Z,2.77
2019-01-12T14:26:56.980Z,3.02
2019-01-12T14:29:26.066Z,2.70
2019-01-12T14:31:55.211Z,4.40
2019-01-12T14:34:24.307Z,3.15
2019-01-12T14:36:53.446Z,3.83
2019-01-12T14:39:22.668Z,2.98
2019-01-12T14:41:51.914Z,2.52
2019-01-12T14:44:21.369Z,3.37
2019-01-12T14:46:50.530Z,3.80
2019-01-12T14:49:19.718Z,2.85
2019-01-12T14:51:48.912Z,4.10
2019-01-12T14:54:18.497Z,3.35
2019-01-12T14:56:47.632Z,3.62
2019-01-12T15:04:55.829Z,4.85
2019-01-12T15:07:25.096Z,3.80
2019-01-12T15:09:55.370Z,3.72
2019-01-12T15:12:24.774Z,4.35
2019-01-12T15:14:54.224Z,3.50
2019-01-12T15:21:30.456Z,4.28
2019-01-12T15:23:59.807Z,3.35
2019-01-12T15:26:31.555Z,3.83
2019-01-12T15:31:57.366Z,4.15
2019-01-12T15:34:26.715Z,4.50
2019-01-12T15:46:31.696Z,3.37
2019-01-12T15:54:54.623Z,4.10
2019-01-12T15:57:23.859Z,3.90
2019-01-12T15:59:53.152Z,3.42
2019-01-12T16:02:22.402Z,3.30
2019-01-12T16:04:51.570Z,3.80
2019-01-12T16:07:20.748Z,3.80
2019-01-12T16:09:49.958Z,3.70
2019-01-12T16:12:19.055Z,3.80
2019-01-12T16:14:48.273Z,4.15
2019-01-12T16:17:17.464Z,4.97
2019-01-12T16:19:46.621Z,3.10
2019-01-12T16:22:15.816Z,3.60
2019-01-12T16:24:46.181Z,3.40
2019-01-12T16:27:16.416Z,3.08
2019-01-12T16:29:45.596Z,3.10
2019-01-12T16:32:18.864Z,5.15
2019-01-12T16:34:49.468Z,4.00
2019-01-12T16:37:19.544Z,5.00
2019-01-12T16:39:48.743Z,3.75
2019-01-12T16:42:17.880Z,4.10
2019-01-12T16:44:46.976Z,3.62
2019-01-12T16:47:16.075Z,3.62
2019-01-12T16:49:53.515Z,3.27
2019-01-12T16:57:48.116Z,3.25
2019-01-12T17:00:19.881Z,2.98
2019-01-12T17:02:49.257Z,2.83
2019-01-12T17:05:18.833Z,2.62
2019-01-12T17:07:48.227Z,2.65
2019-01-12T17:12:59.422Z,2.80
2019-01-12T17:15:34.609Z,3.40
2019-01-12T17:24:14.488Z,3.05
2019-01-12T17:42:50.386Z,2.52
2019-01-12T17:45:22.684Z,2.80
2019-01-12T17:47:52.937Z,2.70
2019-01-12T17:50:23.672Z,2.17
2019-01-12T17:52:52.922Z,3.10
2019-01-12T17:55:24.018Z,3.17
2019-01-12T17:57:53.187Z,3.15
2019-01-12T18:00:47.948Z,2.83
2019-01-12T18:03:18.606Z,2.92
2019-01-12T18:05:49.353Z,3.10
2019-01-12T18:08:20.025Z,3.12
2019-01-12T18:11:05.929Z,3.08
2019-01-12T18:13:35.241Z,4.15
2019-01-12T18:16:09.079Z,3.50
2019-01-12T18:18:38.520Z,3.50
2019-01-12T18:21:08.198Z,2.67
2019-01-12T18:23:39.700Z,2.70
2019-01-12T18:26:09.241Z,3.60
2019-01-12T18:29:02.081Z,2.90
2019-01-12T18:31:31.297Z,2.85
2019-01-12T18:34:05.822Z,3.33
2019-01-12T18:36:35.377Z,3.35
2019-01-12T18:39:06.973Z,2.65
2019-01-12T18:41:36.183Z,2.40
2019-01-12T18:44:14.392Z,2.60
2019-01-12T18:46:44.994Z,2.90
2019-01-12T18:55:35.892Z,3.58
2019-01-12T18:58:07.907Z,3.00
2019-01-12T19:00:37.278Z,3.00
2019-01-12T19:03:06.477Z,2.80
2019-01-12T19:06:46.095Z,3.25
2019-01-12T19:10:37.176Z,3.42
2019-01-12T19:13:06.437Z,4.05
2019-01-12T19:15:35.834Z,3.62
2019-01-12T19:18:07.073Z,2.75
2019-01-12T19:20:36.199Z,3.42
2019-01-12T19:23:07.493Z,3.65
2019-01-12T19:25:36.627Z,2.90
2019-01-12T19:28:06.099Z,4.03
2019-01-12T19:30:35.269Z,2.85
2019-01-12T19:33:04.541Z,2.90
2019-01-12T19:35:33.794Z,2.80
2019-01-12T19:38:02.969Z,2.45
2019-01-12T19:40:32.090Z,3.33
2019-01-12T19:43:01.288Z,3.00
2019-01-12T19:45:30.617Z,2.95
2019-01-12T19:48:01.004Z,3.40
2019-01-12T19:50:30.281Z,3.60
2019-01-12T19:53:04.611Z,2.75
2019-01-12T19:58:22.248Z,2.95
2019-01-12T20:00:55.605Z,3.30
2019-01-12T20:03:26.250Z,3.08
2019-01-12T20:05:55.397Z,3.65
2019-01-12T20:08:24.600Z,3.40
2019-01-12T20:10:53.781Z,3.22
2019-01-12T20:13:22.989Z,3.70
2019-01-12T20:15:52.226Z,3.00
2019-01-12T20:18:22.488Z,3.25
2019-01-12T20:20:51.798Z,3.05
2019-01-12T20:23:20.985Z,3.27
2019-01-12T20:25:53.060Z,2.85
2019-01-12T20:28:22.928Z,2.95
2019-01-12T20:31:09.412Z,3.25
2019-01-12T20:33:50.031Z,2.40
2019-01-12T20:37:07.793Z,2.58
2019-01-12T20:40:24.597Z,2.52
2019-01-12T20:43:33.059Z,3.52
2019-01-12T20:46:30.053Z,3.15
2019-01-12T20:49:11.401Z,2.70
2019-01-12T20:52:38.049Z,2.58
2019-01-12T20:56:09.651Z,4.20
2019-01-12T20:58:56.595Z,2.90
2019-01-12T21:02:05.193Z,2.80
2019-01-12T21:05:11.788Z,3.08
2019-01-12T21:08:20.156Z,2.20
2019-01-12T21:11:14.024Z,2.72
2019-01-12T21:14:01.551Z,2.87
2019-01-12T21:16:34.319Z,3.10
2019-01-12T21:19:05.094Z,3.20
2019-01-12T21:21:34.376Z,2.67
2019-01-12T21:24:06.531Z,2.75
2019-01-12T21:26:35.598Z,2.92
2019-01-12T21:29:04.916Z,2.50
2019-01-12T21:31:34.055Z,2.80
2019-01-12T21:34:03.586Z,3.00
2019-01-12T21:36:32.826Z,2.72
2019-01-12T21:39:02.296Z,2.70
2019-01-12T21:41:32.017Z,3.02
2019-01-12T21:44:03.577Z,2.40
2019-01-12T21:46:33.008Z,5.12
2019-01-12T21:49:02.254Z,5.78
2019-01-12T21:51:34.365Z,2.72
2019-01-12T21:54:03.741Z,2.60
2019-01-12T21:56:33.129Z,3.30
2019-01-12T21:59:02.356Z,3.30
2019-01-12T22:01:36.230Z,3.40
2019-01-12T22:04:02.537Z,2.30
2019-01-12T22:06:31.705Z,2.60
2019-01-12T22:09:00.971Z,3.27
2019-01-12T22:11:30.081Z,3.02
2019-01-12T22:13:59.269Z,2.65
2019-01-12T22:16:28.393Z,2.58
2019-01-12T22:18:57.496Z,2.87
2019-01-12T22:21:26.609Z,3.10
2019-01-12T22:23:55.768Z,2.83
2019-01-12T22:26:24.972Z,2.85
2019-01-12T22:28:54.094Z,3.12
2019-01-12T22:31:23.304Z,2.45
2019-01-12T22:33:53.911Z,2.83
2019-01-12T22:36:23.062Z,3.10
2019-01-12T22:38:52.238Z,2.20
2019-01-12T22:41:21.496Z,2.65
2019-01-12T22:43:50.601Z,2.77
2019-01-12T22:46:19.892Z,3.00
2019-01-12T22:48:48.996Z,2.90
2019-01-12T22:51:18.107Z,2.70
2019-01-12T22:53:47.610Z,2.70
2019-01-12T22:56:16.783Z,3.00
2019-01-12T22:58:45.896Z,2.35
2019-01-12T23:01:33.845Z,3.12
2019-01-12T23:04:04.693Z,2.55
2019-01-12T23:06:33.792Z,3.87
2019-01-12T23:09:02.932Z,3.85
2019-01-12T23:11:32.148Z,2.95
2019-01-12T23:14:01.227Z,3.42
2019-01-12T23:16:30.446Z,3.92
2019-01-12T23:18:59.643Z,3.62
2019-01-12T23:21:28.765Z,3.40
2019-01-12T23:23:57.888Z,3.25
2019-01-12T23:26:26.982Z,3.47
2019-01-12T23:28:56.264Z,3.37
2019-01-12T23:31:25.341Z,3.75
2019-01-12T23:33:54.440Z,3.60
2019-01-12T23:36:23.685Z,3.70
2019-01-12T23:38:52.803Z,3.52
2019-01-12T23:41:22.045Z,3.60
2019-01-12T23:43:51.171Z,3.05
2019-01-12T23:46:20.371Z,3.20
2019-01-12T23:48:49.493Z,3.10
2019-01-12T23:51:18.663Z,3.58
2019-01-12T23:53:47.827Z,3.60
2019-01-12T23:56:16.948Z,3.00
2019-01-12T23:58:46.076Z,3.12
